Marseilles, IL (61341)

4:06 PM CST on February 09, 2016 (GMT -0600)
South Ottawa IL | | Change Station
CLOSE
Current Station
Personal Weather Station
Location: Ottawa, IL
Elevation: 607 ft
Nearby Weather Stations

Elev 607 ft 41.33 °N, 88.83 °W | Updated 10 minutes ago

Overcast
Overcast
17.8 °F
Feels Like 7 °F
N
8.3
Wind Variable Wind from WNW

Today
High -- | Low -- °F
--% Chance of Precip.
Yesterday
High -- | Low -- °F
Precip. -- in
Pressure 29.90 in
Visibility 10.0 miles
Clouds Scattered Clouds 2700 ft
Overcast 3200 ft
Windchill 7 °F
Dew Point 10 °F
Humidity 71%
Rainfall 0.00 in
Snow Depth Not available.
6:57 AM 5:20 PM
New Moon, 2% visible
METAR KC09 092155Z AUTO 32012G16KT 10SM SCT027 OVC032 M08/M13 A2990 RMK AO2 T10791131
Pressure 29.90 in
Visibility 10.0 miles
Clouds Scattered Clouds 2700 ft
Overcast 3200 ft
Windchill 7 °F
Dew Point 10 °F
Humidity 71%
Rainfall 0.00 in
Snow Depth Not available.
6:57 AM 5:20 PM
New Moon, 2% visible
METAR KC09 092155Z AUTO 32012G16KT 10SM SCT027 OVC032 M08/M13 A2990 RMK AO2 T10791131

10-Day Weather Forecast

Almanac

Astronomy

Feb. 09, 2016 Rise Set
Actual Time
Civil Twilight
Nautical Twilight
Astronomical Twilight
Moon
Length of Visible Light
Length of Day
Tomorrow will be .
, % of the Moon is Illuminated

Today's Extremes

State Highs State Lows

Community

WunderPhotos

Upload Photos

1,891,719 photos uploaded!

WunderBlog® & News

Nearby

Air Quality

  Air Quality AQ Index Pollutant
Not available.

Snow Depth

Station Depth Elevation

Earthquake Activity

City Distance Mag. Time & Date
Minimum magnitude displayed is 2.5.

Coastal Water Temperatures

Place Temperature

Stations

Nearby Weather Stations

Station Location Temp. Windchill Dew Point Humidity Wind Precip. Elev Updated Type
                   

Watches & Warnings

There are currently no watches in effect.